createdAt,value
2018-08-18T00:01:32.324Z,5.85
2018-08-18T00:04:05.880Z,5.45
2018-08-18T00:06:34.203Z,5.03
2018-08-18T00:09:02.573Z,5.03
2018-08-18T00:11:30.916Z,5.00
2018-08-18T00:13:59.261Z,4.92
2018-08-18T00:16:28.623Z,5.10
2018-08-18T00:18:58.859Z,5.30
2018-08-18T00:21:28.580Z,5.00
2018-08-18T00:24:00.086Z,5.03
2018-08-18T00:26:28.800Z,5.15
2018-08-18T00:28:57.072Z,4.90
2018-08-18T00:31:25.395Z,5.40
2018-08-18T00:33:53.721Z,5.28
2018-08-18T00:36:22.072Z,4.87
2018-08-18T00:38:50.519Z,4.47
2018-08-18T00:41:18.803Z,5.72
2018-08-18T00:43:47.351Z,4.97
2018-08-18T00:46:15.752Z,5.40
2018-08-18T00:48:44.113Z,4.72
2018-08-18T00:51:13.201Z,5.78
2018-08-18T00:53:41.523Z,4.87
2018-08-18T00:56:09.796Z,5.03
2018-08-18T00:58:38.136Z,5.00
2018-08-18T01:01:06.449Z,5.22
2018-08-18T01:03:41.966Z,4.47
2018-08-18T01:06:27.930Z,4.90
2018-08-18T01:08:58.160Z,5.33
2018-08-18T01:11:26.679Z,4.97
2018-08-18T01:13:55.770Z,4.37
2018-08-18T01:16:24.223Z,4.78
2018-08-18T01:18:52.876Z,4.25
2018-08-18T01:21:21.956Z,4.80
2018-08-18T01:23:50.241Z,5.17
2018-08-18T01:26:18.576Z,5.10
2018-08-18T01:28:46.901Z,4.08
2018-08-18T01:31:18.069Z,4.67
2018-08-18T01:33:46.387Z,4.87
2018-08-18T01:36:14.721Z,5.08
2018-08-18T01:38:49.709Z,4.73
2018-08-18T01:41:19.852Z,4.22
2018-08-18T01:43:54.647Z,4.33
2018-08-18T01:46:22.965Z,4.57
2018-08-18T01:48:51.256Z,4.58
2018-08-18T01:51:22.242Z,4.65
2018-08-18T01:53:51.380Z,4.70
2018-08-18T01:56:20.486Z,4.20
2018-08-18T01:58:48.793Z,4.90
2018-08-18T02:01:17.138Z,4.93
2018-08-18T02:03:45.457Z,4.72
2018-08-18T02:06:13.787Z,4.80
2018-08-18T02:08:55.543Z,4.72
2018-08-18T02:11:25.438Z,4.93
2018-08-18T02:13:55.024Z,4.43
2018-08-18T02:16:24.822Z,3.83
2018-08-18T02:18:53.141Z,4.33
2018-08-18T02:21:26.910Z,4.50
2018-08-18T02:23:55.562Z,4.95
2018-08-18T02:26:23.848Z,5.00
2018-08-18T02:28:52.191Z,4.53
2018-08-18T02:31:20.489Z,4.57
2018-08-18T02:33:48.763Z,4.77
2018-08-18T02:36:17.124Z,4.50
2018-08-18T02:39:01.344Z,4.60
2018-08-18T02:41:30.794Z,4.50
2018-08-18T02:44:05.568Z,4.70
2018-08-18T02:46:35.859Z,5.00
2018-08-18T02:49:04.667Z,4.70
2018-08-18T02:51:33.368Z,4.87
2018-08-18T02:54:02.024Z,4.67
2018-08-18T02:56:35.744Z,5.03
2018-08-18T02:59:08.293Z,5.10
2018-08-18T03:01:37.791Z,4.87
2018-08-18T03:04:08.005Z,4.55
2018-08-18T03:06:36.456Z,4.25
2018-08-18T03:09:06.362Z,4.20
2018-08-18T03:11:35.265Z,4.40
2018-08-18T03:14:04.038Z,5.03
2018-08-18T03:16:32.582Z,4.65
2018-08-18T03:19:00.879Z,4.67
2018-08-18T03:21:34.510Z,5.17
2018-08-18T03:24:09.003Z,4.80
2018-08-18T03:26:40.090Z,4.67
2018-08-18T03:29:08.451Z,5.07
2018-08-18T03:31:37.485Z,5.00
2018-08-18T03:34:06.104Z,4.93
2018-08-18T03:36:35.738Z,4.95
2018-08-18T03:39:05.511Z,4.93
2018-08-18T03:41:33.811Z,5.30
2018-08-18T03:44:02.074Z,5.03
2018-08-18T03:46:30.383Z,5.00
2018-08-18T03:48:58.656Z,4.87
2018-08-18T03:51:32.472Z,5.07
2018-08-18T03:54:01.556Z,5.90
2018-08-18T03:56:29.969Z,5.87
2018-08-18T03:58:59.030Z,5.67
2018-08-18T04:01:37.166Z,5.33
2018-08-18T04:04:06.517Z,6.00
2018-08-18T04:06:35.697Z,6.17
2018-08-18T04:09:05.599Z,6.50
2018-08-18T04:11:33.910Z,6.57
2018-08-18T04:14:02.211Z,6.50
2018-08-18T04:16:30.513Z,6.00
2018-08-18T04:19:01.954Z,5.93
2018-08-18T04:21:32.708Z,5.83
2018-08-18T04:24:01.021Z,5.93
2018-08-18T04:26:29.952Z,6.03
2018-08-18T04:28:58.325Z,5.67
2018-08-18T04:31:31.208Z,5.77
2018-08-18T04:34:01.544Z,5.50
2018-08-18T04:36:29.877Z,6.13
2018-08-18T04:38:58.509Z,6.43
2018-08-18T04:41:26.858Z,6.73
2018-08-18T04:43:55.546Z,6.00
2018-08-18T04:46:23.944Z,5.90
2018-08-18T04:48:52.251Z,6.20
2018-08-18T04:51:20.615Z,6.63
2018-08-18T04:53:48.985Z,6.23
2018-08-18T04:56:17.305Z,6.50
2018-08-18T04:58:45.612Z,6.50
2018-08-18T05:01:13.983Z,6.27
2018-08-18T05:03:52.111Z,6.30
2018-08-18T05:06:25.009Z,6.43
2018-08-18T05:08:53.330Z,6.30
2018-08-18T05:11:21.635Z,6.57
2018-08-18T05:13:50.040Z,6.63
2018-08-18T05:16:18.318Z,6.43
2018-08-18T05:18:46.782Z,6.40
2018-08-18T05:21:15.166Z,5.97
2018-08-18T05:23:50.278Z,6.97
2018-08-18T05:26:18.602Z,5.70
2018-08-18T05:28:47.347Z,7.33
2018-08-18T05:31:15.714Z,6.13
2018-08-18T05:33:44.036Z,6.60
2018-08-18T05:36:12.334Z,6.33
2018-08-18T05:38:41.687Z,6.50
2018-08-18T05:41:10.399Z,6.70
2018-08-18T05:43:38.852Z,6.87
2018-08-18T05:46:07.205Z,6.60
2018-08-18T05:48:35.582Z,6.23
2018-08-18T05:51:04.167Z,6.20
2018-08-18T05:53:35.327Z,5.87
2018-08-18T05:56:04.371Z,6.23
2018-08-18T05:58:42.575Z,7.05
2018-08-18T06:01:22.600Z,6.47
2018-08-18T06:03:53.982Z,7.30
2018-08-18T06:06:22.324Z,6.47
2018-08-18T06:08:50.749Z,6.60
2018-08-18T06:11:19.113Z,6.27
2018-08-18T06:13:47.403Z,6.30
2018-08-18T06:16:15.756Z,6.90
2018-08-18T06:18:44.071Z,6.23
2018-08-18T06:21:12.365Z,5.83
2018-08-18T06:23:40.656Z,5.53
2018-08-18T06:26:09.022Z,5.97
2018-08-18T06:28:37.355Z,4.90
2018-08-18T06:31:05.723Z,5.50
2018-08-18T06:33:34.081Z,6.20
2018-08-18T06:36:02.855Z,5.20
2018-08-18T06:38:31.157Z,5.30
2018-08-18T06:41:00.879Z,5.67
2018-08-18T06:43:30.510Z,5.45
2018-08-18T06:45:59.490Z,5.12
2018-08-18T06:48:29.396Z,5.65
2018-08-18T06:50:57.754Z,5.30
2018-08-18T06:53:26.060Z,5.30
2018-08-18T06:55:54.469Z,5.42
2018-08-18T06:58:22.747Z,6.03
2018-08-18T07:00:51.076Z,5.80
2018-08-18T07:03:25.252Z,4.77
2018-08-18T07:05:53.611Z,5.75
2018-08-18T07:08:21.909Z,5.20
2018-08-18T07:10:50.249Z,5.53
2018-08-18T07:13:18.580Z,5.37
2018-08-18T07:15:47.685Z,5.33
2018-08-18T07:18:16.388Z,4.78
2018-08-18T07:20:44.753Z,5.05
2018-08-18T07:23:13.049Z,4.42
2018-08-18T07:25:47.458Z,4.85
2018-08-18T07:28:18.264Z,4.45
2018-08-18T07:30:46.583Z,5.42
2018-08-18T07:33:14.957Z,4.67
2018-08-18T07:35:43.252Z,4.53
2018-08-18T07:38:11.532Z,4.58
2018-08-18T07:40:44.069Z,3.92
2018-08-18T07:43:13.938Z,4.83
2018-08-18T07:45:42.331Z,4.70
2018-08-18T07:48:10.925Z,4.72
2018-08-18T07:50:39.184Z,4.10
2018-08-18T07:53:07.733Z,4.17
2018-08-18T07:55:36.063Z,4.00
2018-08-18T07:58:07.393Z,4.28
2018-08-18T08:00:36.909Z,4.05
2018-08-18T08:03:05.795Z,3.92
2018-08-18T08:05:34.119Z,3.70
2018-08-18T08:08:02.514Z,4.08
2018-08-18T08:10:30.879Z,3.75
2018-08-18T08:12:59.286Z,3.90
2018-08-18T08:15:27.651Z,4.20
2018-08-18T08:17:55.943Z,4.22
2018-08-18T08:20:24.397Z,3.43
2018-08-18T08:22:53.621Z,4.08
2018-08-18T08:25:21.924Z,4.50
2018-08-18T08:27:50.796Z,4.03
2018-08-18T08:30:20.288Z,3.63
2018-08-18T08:32:48.960Z,3.50
2018-08-18T08:35:17.432Z,4.00
2018-08-18T08:37:46.405Z,4.45
2018-08-18T08:40:15.431Z,3.90
2018-08-18T08:42:43.755Z,3.22
2018-08-18T08:45:14.454Z,3.20
2018-08-18T08:47:43.285Z,3.08
2018-08-18T08:50:13.138Z,3.27
2018-08-18T08:52:49.525Z,3.50
2018-08-18T08:55:20.107Z,3.03
2018-08-18T08:57:48.423Z,2.47
2018-08-18T09:00:16.816Z,2.37
2018-08-18T09:02:45.122Z,2.27
2018-08-18T09:05:13.561Z,2.73
2018-08-18T09:07:42.431Z,2.33
2018-08-18T09:10:11.597Z,2.85
2018-08-18T09:12:39.981Z,2.60
2018-08-18T09:15:08.991Z,2.37
2018-08-18T09:17:37.347Z,3.05
2018-08-18T09:20:07.154Z,2.16
2018-08-18T09:22:39.899Z,1.87
2018-08-18T09:25:15.930Z,1.80
2018-08-18T09:27:48.551Z,1.55
2018-08-18T09:30:16.867Z,1.25
2018-08-18T09:32:45.174Z,1.37
2018-08-18T09:35:13.538Z,1.50
2018-08-18T09:37:44.702Z,1.20
2018-08-18T09:40:13.067Z,1.00
2018-08-18T09:42:41.431Z,1.10
2018-08-18T09:45:09.783Z,0.90
2018-08-18T09:47:38.101Z,1.00
2018-08-18T09:50:06.447Z,8.58
2018-08-18T09:52:34.785Z,1.37
2018-08-18T09:55:03.236Z,1.30
2018-08-18T09:57:31.565Z,1.02
2018-08-18T09:59:59.937Z,1.37
2018-08-18T10:02:28.287Z,1.32
2018-08-18T10:04:56.913Z,3.12
2018-08-18T10:07:25.303Z,1.45
2018-08-18T10:09:53.661Z,1.60
2018-08-18T10:12:21.981Z,1.20
2018-08-18T10:14:50.309Z,1.50
2018-08-18T10:17:18.664Z,1.10
2018-08-18T10:22:21.765Z,1.32
2018-08-18T10:24:50.067Z,1.30
2018-08-18T10:27:18.448Z,1.30
2018-08-18T10:29:46.795Z,1.25
2018-08-18T10:32:16.161Z,1.45
2018-08-18T10:34:44.516Z,1.35
2018-08-18T10:37:14.227Z,1.30
2018-08-18T10:39:42.518Z,1.40
2018-08-18T10:42:13.966Z,1.72
2018-08-18T10:44:47.066Z,1.67
2018-08-18T10:47:17.768Z,1.67
2018-08-18T10:49:51.630Z,1.35
2018-08-18T10:52:26.183Z,1.80
2018-08-18T10:54:56.599Z,2.02
2018-08-18T10:57:30.649Z,1.72
2018-08-18T10:59:59.701Z,2.27
2018-08-18T11:02:33.704Z,1.72
2018-08-18T11:05:02.046Z,2.37
2018-08-18T11:07:30.437Z,2.05
2018-08-18T11:09:58.806Z,1.75
2018-08-18T11:12:27.132Z,1.77
2018-08-18T11:14:58.585Z,2.10
2018-08-18T11:17:27.985Z,1.60
2018-08-18T11:19:56.491Z,1.75
2018-08-18T11:22:44.261Z,1.70
2018-08-18T11:25:12.544Z,1.60
2018-08-18T11:27:40.886Z,1.60
2018-08-18T11:30:10.284Z,1.80
2018-08-18T11:32:38.873Z,2.40
2018-08-18T11:35:08.613Z,2.10
2018-08-18T11:37:42.593Z,2.60
2018-08-18T11:40:10.945Z,2.50
2018-08-18T11:42:39.379Z,2.65
2018-08-18T11:45:07.720Z,3.65
2018-08-18T11:47:36.085Z,3.05
2018-08-18T11:50:04.500Z,3.55
2018-08-18T11:52:35.275Z,2.72
2018-08-18T11:55:03.620Z,2.87
2018-08-18T11:57:31.965Z,2.70
2018-08-18T12:00:00.313Z,3.08
2018-08-18T12:02:28.648Z,3.33
2018-08-18T12:04:56.977Z,3.42
2018-08-18T12:07:25.344Z,3.00
2018-08-18T12:09:53.689Z,3.30
2018-08-18T12:12:22.031Z,4.30
2018-08-18T12:14:50.388Z,3.08
2018-08-18T12:17:18.670Z,3.20
2018-08-18T12:19:49.503Z,2.95
2018-08-18T12:22:17.920Z,2.95
2018-08-18T12:24:50.520Z,3.37
2018-08-18T12:27:18.850Z,3.17
2018-08-18T12:29:47.235Z,4.28
2018-08-18T12:32:20.980Z,3.60
2018-08-18T12:34:49.254Z,3.90
2018-08-18T12:37:17.671Z,4.10
2018-08-18T12:39:46.034Z,4.17
2018-08-18T12:42:18.677Z,4.78
2018-08-18T12:44:47.037Z,3.87
2018-08-18T12:47:15.373Z,3.10
2018-08-18T12:49:43.729Z,3.60
2018-08-18T12:52:12.070Z,3.75
2018-08-18T12:54:46.841Z,3.47
2018-08-18T12:57:20.507Z,3.92
2018-08-18T12:59:48.805Z,2.62
2018-08-18T13:02:17.101Z,2.72
2018-08-18T13:04:45.466Z,3.27
2018-08-18T13:07:13.779Z,3.60
2018-08-18T13:09:42.065Z,2.90
2018-08-18T13:12:10.438Z,3.52
2018-08-18T13:14:39.015Z,2.72
2018-08-18T13:17:07.389Z,2.98
2018-08-18T13:19:35.715Z,2.95
2018-08-18T13:22:04.051Z,3.45
2018-08-18T13:24:32.820Z,3.02
2018-08-18T13:27:01.532Z,3.87
2018-08-18T13:29:29.927Z,4.47
2018-08-18T13:31:58.288Z,3.52
2018-08-18T13:34:26.653Z,3.50
2018-08-18T13:36:54.990Z,3.25
2018-08-18T13:39:23.281Z,3.90
2018-08-18T13:41:51.620Z,4.90
2018-08-18T13:44:30.900Z,3.50
2018-08-18T13:46:59.264Z,3.45
2018-08-18T13:49:27.919Z,3.42
2018-08-18T13:51:56.220Z,3.77
2018-08-18T13:54:24.582Z,3.47
2018-08-18T13:56:52.952Z,3.42
2018-08-18T13:59:31.019Z,3.65
2018-08-18T14:01:59.588Z,3.90
2018-08-18T14:04:29.838Z,4.53
2018-08-18T14:06:58.198Z,4.10
2018-08-18T14:09:26.527Z,3.77
2018-08-18T14:11:55.208Z,3.75
2018-08-18T14:16:58.176Z,3.70
2018-08-18T14:19:26.502Z,4.80
2018-08-18T14:22:00.278Z,4.70
2018-08-18T14:24:33.106Z,4.70
2018-08-18T14:27:02.145Z,4.10
2018-08-18T14:29:32.039Z,4.97
2018-08-18T14:32:01.396Z,4.03
2018-08-18T14:34:29.754Z,4.17
2018-08-18T14:37:04.156Z,4.70
2018-08-18T14:39:33.746Z,4.42
2018-08-18T14:42:02.078Z,4.40
2018-08-18T14:44:30.417Z,4.85
2018-08-18T14:46:58.737Z,4.80
2018-08-18T14:49:27.075Z,6.05
2018-08-18T14:51:55.417Z,4.78
2018-08-18T14:54:28.201Z,5.10
2018-08-18T14:56:57.140Z,4.37
2018-08-18T14:59:41.994Z,4.80
2018-08-18T15:02:10.327Z,5.08
2018-08-18T15:04:38.630Z,5.40
2018-08-18T15:07:06.924Z,5.78
2018-08-18T15:09:36.338Z,5.72
2018-08-18T15:12:04.750Z,4.92
2018-08-18T15:14:33.131Z,4.65
2018-08-18T15:17:01.460Z,4.35
2018-08-18T15:19:29.778Z,4.53
2018-08-18T15:21:58.968Z,4.80
2018-08-18T15:24:27.311Z,5.03
2018-08-18T15:26:55.608Z,4.25
2018-08-18T15:29:23.911Z,4.87
2018-08-18T15:31:52.307Z,5.22
2018-08-18T15:34:20.639Z,5.15
2018-08-18T15:36:48.933Z,5.10
2018-08-18T15:39:17.277Z,5.00
2018-08-18T15:41:45.590Z,4.97
2018-08-18T15:44:13.900Z,4.65
2018-08-18T15:46:42.381Z,5.25
2018-08-18T15:49:12.123Z,5.92
2018-08-18T15:51:40.439Z,5.72
2018-08-18T15:54:08.866Z,5.22
2018-08-18T15:56:37.167Z,5.20
2018-08-18T15:59:05.505Z,6.03
2018-08-18T16:01:35.020Z,5.25
2018-08-18T16:04:04.051Z,5.50
2018-08-18T16:06:32.339Z,6.22
2018-08-18T16:09:00.668Z,6.00
2018-08-18T16:11:28.961Z,6.12
2018-08-18T16:13:57.374Z,5.78
2018-08-18T16:16:25.721Z,6.22
2018-08-18T16:18:55.146Z,6.78
2018-08-18T16:21:24.172Z,7.15
2018-08-18T16:23:52.633Z,6.80
2018-08-18T16:26:20.881Z,6.47
2018-08-18T16:28:50.122Z,7.15
2018-08-18T16:31:18.487Z,6.58
2018-08-18T16:33:48.093Z,7.25
2018-08-18T16:36:17.244Z,7.20
2018-08-18T16:38:45.602Z,7.05
2018-08-18T16:41:14.025Z,6.80
2018-08-18T16:43:42.430Z,7.03
2018-08-18T16:46:20.228Z,7.92
2018-08-18T16:48:48.827Z,6.55
2018-08-18T16:51:17.131Z,7.40
2018-08-18T16:53:45.615Z,6.78
2018-08-18T16:56:19.381Z,7.20
2018-08-18T16:58:50.422Z,7.97
2018-08-18T17:01:18.933Z,8.15
2018-08-18T17:03:47.259Z,8.15
2018-08-18T17:06:15.591Z,8.00
2018-08-18T17:08:43.911Z,8.23
2018-08-18T17:11:12.227Z,8.88
2018-08-18T17:13:40.571Z,9.33
2018-08-18T17:16:10.018Z,8.58
2018-08-18T17:18:38.378Z,8.60
2018-08-18T17:21:07.514Z,8.18
2018-08-18T17:23:39.876Z,9.18
2018-08-18T17:26:08.200Z,9.38
2018-08-18T17:28:36.498Z,8.93
2018-08-18T17:31:05.524Z,9.28
2018-08-18T17:33:34.282Z,8.65
2018-08-18T17:36:02.736Z,9.20
2018-08-18T17:38:31.055Z,9.63
2018-08-18T17:40:59.387Z,9.68
2018-08-18T17:43:27.723Z,9.85
2018-08-18T17:45:58.049Z,9.73
2018-08-18T17:48:27.488Z,8.83
2018-08-18T17:50:56.170Z,9.43
2018-08-18T17:53:24.681Z,9.13
2018-08-18T17:55:58.494Z,9.20
2018-08-18T17:58:27.137Z,9.18
2018-08-18T18:00:55.537Z,7.80
2018-08-18T18:03:23.898Z,6.85
2018-08-18T18:05:52.351Z,7.00
2018-08-18T18:08:22.348Z,7.33
2018-08-18T18:10:50.709Z,6.90
2018-08-18T18:13:27.595Z,6.65
2018-08-18T18:15:55.967Z,6.95
2018-08-18T18:18:25.939Z,6.70
2018-08-18T18:20:55.512Z,7.80
2018-08-18T18:23:24.139Z,7.33
2018-08-18T18:25:52.488Z,6.37
2018-08-18T18:28:20.818Z,6.08
2018-08-18T18:30:51.459Z,5.70
2018-08-18T18:33:19.840Z,5.75
2018-08-18T18:35:48.627Z,5.08
2018-08-18T18:38:16.958Z,4.97
2018-08-18T18:40:45.797Z,5.05
2018-08-18T18:43:14.125Z,4.85
2018-08-18T18:45:42.594Z,5.00
2018-08-18T18:48:12.055Z,5.30
2018-08-18T18:50:40.423Z,5.08
2018-08-18T18:53:08.878Z,4.62
2018-08-18T18:55:43.375Z,5.25
2018-08-18T18:58:13.249Z,5.65
2018-08-18T19:00:48.750Z,5.15
2018-08-18T19:03:17.130Z,5.12
2018-08-18T19:05:46.860Z,5.00
2018-08-18T19:08:16.678Z,5.10
2018-08-18T19:10:45.077Z,5.00
2018-08-18T19:13:13.431Z,5.30
2018-08-18T19:15:41.796Z,4.95
2018-08-18T19:18:10.511Z,5.75
2018-08-18T19:20:38.918Z,5.35
2018-08-18T19:23:12.597Z,5.78
2018-08-18T19:25:42.212Z,5.70
2018-08-18T19:28:13.397Z,5.10
2018-08-18T19:30:41.699Z,6.03
2018-08-18T19:33:11.076Z,5.10
2018-08-18T19:35:42.191Z,5.12
2018-08-18T19:38:11.771Z,5.85
2018-08-18T19:40:41.537Z,4.97
2018-08-18T19:43:11.834Z,5.62
2018-08-18T19:45:40.233Z,5.58
2018-08-18T19:48:08.738Z,5.05
2018-08-18T19:50:37.167Z,5.67
2018-08-18T19:53:10.379Z,5.60
2018-08-18T19:55:38.800Z,5.10
2018-08-18T19:58:07.133Z,5.45
2018-08-18T20:00:35.571Z,5.30
2018-08-18T20:03:19.682Z,4.87
2018-08-18T20:05:49.960Z,5.17
2018-08-18T20:08:19.867Z,5.83
2018-08-18T20:10:53.565Z,5.10
2018-08-18T20:13:23.034Z,5.42
2018-08-18T20:15:52.854Z,5.45
2018-08-18T20:18:21.381Z,5.40
2018-08-18T20:20:50.069Z,5.28
2018-08-18T20:23:19.268Z,5.03
2018-08-18T20:25:48.544Z,5.92
2018-08-18T20:28:17.203Z,6.65
2018-08-18T20:30:45.903Z,5.05
2018-08-18T20:33:14.434Z,5.50
2018-08-18T20:35:42.989Z,5.70
2018-08-18T20:38:11.524Z,6.50
2018-08-18T20:40:40.896Z,6.22
2018-08-18T20:43:09.424Z,6.53
2018-08-18T20:45:42.198Z,5.97
2018-08-18T20:48:13.464Z,6.72
2018-08-18T20:50:42.056Z,16.30
2018-08-18T20:53:13.771Z,8.58
2018-08-18T20:55:43.728Z,6.55
2018-08-18T20:58:13.312Z,5.47
2018-08-18T21:00:41.838Z,5.75
2018-08-18T21:03:11.343Z,6.15
2018-08-18T21:05:39.848Z,5.50
2018-08-18T21:08:13.681Z,6.67
2018-08-18T21:10:42.365Z,5.58
2018-08-18T21:13:10.935Z,5.35
2018-08-18T21:15:39.519Z,5.85
2018-08-18T21:18:22.716Z,5.80
2018-08-18T21:20:51.480Z,5.60
2018-08-18T21:23:23.323Z,5.70
2018-08-18T21:25:53.025Z,5.30
2018-08-18T21:28:23.978Z,6.80
2018-08-18T21:30:52.517Z,5.47
2018-08-18T21:33:24.123Z,6.22
2018-08-18T21:35:53.672Z,6.15
2018-08-18T21:38:22.155Z,5.87
2018-08-18T21:40:50.676Z,5.75
2018-08-18T21:43:24.618Z,5.85
2018-08-18T21:45:53.586Z,5.47
2018-08-18T21:48:26.473Z,5.17
2018-08-18T21:50:55.033Z,4.62
2018-08-18T21:53:23.502Z,5.58
2018-08-18T21:55:52.027Z,5.00
2018-08-18T21:58:20.592Z,4.70
2018-08-18T22:00:49.907Z,5.08
2018-08-18T22:03:18.475Z,5.10
2018-08-18T22:05:47.058Z,5.12
2018-08-18T22:08:16.420Z,5.30
2018-08-18T22:10:50.132Z,5.10
2018-08-18T22:13:18.637Z,5.12
2018-08-18T22:15:47.214Z,5.12
2018-08-18T22:18:15.752Z,5.05
2018-08-18T22:20:44.223Z,5.92
2018-08-18T22:23:12.843Z,5.65
2018-08-18T22:25:41.384Z,4.95
2018-08-18T22:28:10.526Z,5.08
2018-08-18T22:30:39.129Z,5.47
2018-08-18T22:33:08.167Z,4.90
2018-08-18T22:35:38.670Z,5.30
2018-08-18T22:38:07.329Z,4.95
2018-08-18T22:40:35.907Z,5.67
2018-08-18T22:43:04.548Z,12.80
2018-08-18T22:45:33.087Z,11.35
2018-08-18T22:48:01.622Z,8.50
2018-08-18T22:50:30.081Z,6.83
2018-08-18T22:52:58.593Z,6.53
2018-08-18T22:55:27.133Z,6.10
2018-08-18T22:58:02.974Z,6.45
2018-08-18T23:00:34.575Z,5.85
2018-08-18T23:03:03.032Z,5.22
2018-08-18T23:05:31.492Z,5.28
2018-08-18T23:08:00.084Z,5.30
2018-08-18T23:10:31.636Z,5.22
2018-08-18T23:13:01.191Z,5.17
2018-08-18T23:15:29.662Z,5.05
2018-08-18T23:17:58.090Z,5.12
2018-08-18T23:20:26.731Z,5.72
2018-08-18T23:23:00.487Z,4.80
2018-08-18T23:25:32.371Z,5.50
2018-08-18T23:28:00.863Z,5.45
2018-08-18T23:30:36.408Z,5.92
2018-08-18T23:33:06.091Z,5.80
2018-08-18T23:35:34.561Z,5.95
2018-08-18T23:38:04.417Z,5.62
2018-08-18T23:40:32.896Z,6.20
2018-08-18T23:43:01.443Z,5.67
2018-08-18T23:45:34.604Z,6.00
2018-08-18T23:48:07.858Z,5.83
2018-08-18T23:50:36.712Z,5.78
2018-08-18T23:53:06.291Z,5.28
2018-08-18T23:55:34.891Z,5.97
2018-08-18T23:58:03.494Z,5.97
